createdAt,value
2019-02-15T00:01:12.841Z,100266.61
2019-02-15T00:03:40.771Z,100256.17
2019-02-15T00:06:08.351Z,100256.17
2019-02-15T00:08:36.552Z,100259.44
2019-02-15T00:11:05.668Z,100258.92
2019-02-15T00:13:34.391Z,100258.26
2019-02-15T00:16:02.632Z,100258.26
2019-02-15T00:18:54.113Z,100258.39
2019-02-15T00:21:25.681Z,100256.61
2019-02-15T00:23:53.950Z,100265.05
2019-02-15T00:26:22.014Z,100262.92
2019-02-15T00:28:50.417Z,100263.87
2019-02-15T00:31:20.142Z,100263.36
2019-02-15T00:33:48.167Z,100267.58
2019-02-15T00:36:16.297Z,100273.06
2019-02-15T00:38:44.831Z,100263.59
2019-02-15T00:41:13.966Z,100262.25
2019-02-15T00:43:42.990Z,100261.20
2019-02-15T00:46:30.870Z,100265.64
2019-02-15T00:48:59.663Z,100257.92
2019-02-15T00:52:05.523Z,100257.87
2019-02-15T00:54:52.900Z,100259.42
2019-02-15T00:57:41.420Z,100249.93
2019-02-15T01:00:19.754Z,100248.98
2019-02-15T01:02:59.040Z,100247.27
2019-02-15T01:05:50.759Z,100239.20
2019-02-15T01:08:37.369Z,100244.33
2019-02-15T01:11:10.601Z,100229.93
2019-02-15T01:13:39.111Z,100242.09
2019-02-15T01:16:09.100Z,100243.03
2019-02-15T01:18:38.351Z,100240.00
2019-02-15T01:21:06.337Z,100234.60
2019-02-15T01:23:34.308Z,100232.31
2019-02-15T01:26:27.913Z,100228.67
2019-02-15T01:29:05.947Z,100229.36
2019-02-15T01:32:09.912Z,100224.89
2019-02-15T01:35:00.938Z,100228.58
2019-02-15T01:37:39.223Z,100223.42
2019-02-15T01:40:13.089Z,100223.44
2019-02-15T01:42:45.852Z,100218.46
2019-02-15T01:45:33.630Z,100209.66
2019-02-15T01:48:01.685Z,100209.66
2019-02-15T01:50:30.124Z,100205.38
2019-02-15T01:52:58.468Z,100206.70
2019-02-15T01:55:27.644Z,100205.30
2019-02-15T01:57:57.432Z,100194.56
2019-02-15T02:00:29.526Z,100202.27
2019-02-15T02:02:58.232Z,100182.49
2019-02-15T02:05:26.888Z,100196.18
2019-02-15T02:07:57.088Z,100196.18
2019-02-15T02:10:26.345Z,100191.30
2019-02-15T02:12:55.736Z,100190.18
2019-02-15T02:15:24.533Z,100184.85
2019-02-15T02:17:53.441Z,100183.16
2019-02-15T02:20:22.056Z,100188.95
2019-02-15T02:22:49.949Z,100183.91
2019-02-15T02:25:18.119Z,100180.34
2019-02-15T02:27:47.058Z,100178.73
2019-02-15T02:30:16.137Z,100174.57
2019-02-15T02:32:44.582Z,100170.73
2019-02-15T02:35:12.720Z,100172.95
2019-02-15T02:37:41.372Z,100177.11
2019-02-15T02:40:09.551Z,100170.13
2019-02-15T02:42:38.737Z,100165.55
2019-02-15T02:45:06.831Z,100164.00
2019-02-15T02:47:34.812Z,100157.70
2019-02-15T02:50:04.653Z,100159.34
2019-02-15T02:52:32.563Z,100160.36
2019-02-15T02:55:00.796Z,100156.53
2019-02-15T02:57:28.601Z,100154.76
2019-02-15T02:59:56.777Z,100159.03
2019-02-15T03:02:43.905Z,100154.08
2019-02-15T03:05:12.143Z,100155.13
2019-02-15T03:07:40.602Z,100152.74
2019-02-15T03:10:08.982Z,100089.80
2019-02-15T03:12:36.793Z,100150.69
2019-02-15T03:15:05.108Z,100149.73
2019-02-15T03:17:33.845Z,100148.53
2019-02-15T03:20:02.122Z,100156.06
2019-02-15T03:22:29.899Z,100152.52
2019-02-15T03:24:58.705Z,100152.52
2019-02-15T03:27:27.849Z,100144.77
2019-02-15T03:29:56.499Z,100145.41
2019-02-15T03:32:25.680Z,100148.91
2019-02-15T03:34:53.973Z,100148.84
2019-02-15T03:37:54.589Z,100149.13
2019-02-15T03:40:33.086Z,100159.86
2019-02-15T03:43:01.284Z,100159.86
2019-02-15T03:45:29.947Z,100161.48
2019-02-15T03:47:58.441Z,100153.42
2019-02-15T03:50:29.049Z,100152.37
2019-02-15T03:52:57.356Z,100154.14
2019-02-15T03:55:26.057Z,100152.09
2019-02-15T03:57:54.168Z,100146.88
2019-02-15T04:00:21.940Z,100152.67
2019-02-15T04:02:50.592Z,100148.97
2019-02-15T04:05:18.654Z,100143.42
2019-02-15T04:07:47.603Z,100149.86
2019-02-15T04:10:15.509Z,100163.17
2019-02-15T04:12:43.599Z,100160.88
2019-02-15T04:15:11.702Z,100161.70
2019-02-15T04:17:39.342Z,100155.77
2019-02-15T04:20:08.486Z,100173.00
2019-02-15T04:22:36.536Z,100163.01
2019-02-15T04:25:04.610Z,100163.75
2019-02-15T04:27:32.855Z,100165.69
2019-02-15T04:30:01.286Z,100163.97
2019-02-15T04:32:29.078Z,100163.17
2019-02-15T04:34:57.561Z,100167.91
2019-02-15T04:37:26.055Z,100170.41
2019-02-15T04:39:54.386Z,100166.73
2019-02-15T04:43:59.388Z,100168.19
2019-02-15T04:46:27.450Z,100170.05
2019-02-15T04:48:55.006Z,100171.95
2019-02-15T04:51:22.237Z,100173.50
2019-02-15T04:53:50.056Z,100167.62
2019-02-15T04:56:17.351Z,100168.79
2019-02-15T04:58:45.210Z,100167.32
2019-02-15T05:01:12.909Z,100167.89
2019-02-15T05:03:41.236Z,100166.95
2019-02-15T05:06:09.734Z,100169.44
2019-02-15T05:08:37.670Z,100170.63
2019-02-15T05:11:06.306Z,100169.20
2019-02-15T05:13:35.387Z,100167.88
2019-02-15T05:16:03.491Z,100162.00
2019-02-15T05:18:32.344Z,100167.17
2019-02-15T05:21:00.885Z,100167.00
2019-02-15T05:23:29.024Z,100165.52
2019-02-15T05:25:57.375Z,100173.88
2019-02-15T05:28:25.662Z,100171.73
2019-02-15T05:30:53.905Z,100174.98
2019-02-15T05:33:21.873Z,100186.81
2019-02-15T05:35:50.059Z,100182.75
2019-02-15T05:38:18.424Z,100187.71
2019-02-15T05:40:46.400Z,100182.69
2019-02-15T05:43:14.467Z,100181.20
2019-02-15T05:45:43.603Z,100174.27
2019-02-15T05:48:11.389Z,100166.25
2019-02-15T05:50:39.350Z,100166.25
2019-02-15T05:53:07.658Z,100171.38
2019-02-15T05:55:35.930Z,100171.31
2019-02-15T05:58:04.167Z,100172.47
2019-02-15T06:00:37.085Z,100181.96
2019-02-15T06:03:02.453Z,100182.52
2019-02-15T06:05:30.685Z,100177.62
2019-02-15T06:07:58.550Z,100183.52
2019-02-15T06:10:26.734Z,100176.76
2019-02-15T06:12:54.883Z,100184.23
2019-02-15T06:15:23.036Z,100175.86
2019-02-15T06:17:51.353Z,100181.04
2019-02-15T06:20:19.616Z,100187.27
2019-02-15T06:22:48.644Z,100193.73
2019-02-15T06:25:17.939Z,100193.23
2019-02-15T06:27:46.267Z,100194.28
2019-02-15T06:30:14.621Z,100197.52
2019-02-15T06:32:42.920Z,100138.05
2019-02-15T06:35:13.192Z,100194.20
2019-02-15T06:37:41.243Z,100201.51
2019-02-15T06:40:09.260Z,100195.68
2019-02-15T06:42:37.805Z,100202.84
2019-02-15T06:45:05.896Z,100211.04
2019-02-15T06:47:33.889Z,100208.09
2019-02-15T06:50:01.929Z,100204.17
2019-02-15T06:52:30.048Z,100205.94
2019-02-15T06:54:58.052Z,100197.16
2019-02-15T06:57:26.793Z,100197.16
2019-02-15T07:00:30.135Z,100204.24
2019-02-15T07:03:04.689Z,100208.62
2019-02-15T07:05:35.032Z,100209.74
2019-02-15T07:08:03.749Z,100212.58
2019-02-15T07:10:31.979Z,100211.97
2019-02-15T07:13:01.178Z,100208.70
2019-02-15T07:15:33.695Z,100206.14
2019-02-15T07:17:59.398Z,100208.33
2019-02-15T07:20:27.681Z,100210.03
2019-02-15T07:22:56.572Z,100212.84
2019-02-15T07:25:24.903Z,100212.23
2019-02-15T07:27:54.090Z,100217.75
2019-02-15T07:30:23.519Z,100217.75
2019-02-15T07:32:52.603Z,100211.51
2019-02-15T07:35:20.789Z,100207.48
2019-02-15T07:37:49.870Z,100209.49
2019-02-15T07:40:18.163Z,100208.58
2019-02-15T07:44:34.532Z,100209.00
2019-02-15T07:48:13.741Z,100201.06
2019-02-15T07:50:41.175Z,100212.91
2019-02-15T07:53:09.215Z,100209.06
2019-02-15T07:55:36.461Z,100212.91
2019-02-15T07:58:05.139Z,100210.12
2019-02-15T08:00:32.934Z,100210.02
2019-02-15T08:03:01.093Z,100187.97
2019-02-15T08:05:29.149Z,100216.78
2019-02-15T08:07:58.167Z,100216.28
2019-02-15T08:10:26.835Z,100216.66
2019-02-15T08:12:55.280Z,100208.51
2019-02-15T08:15:23.207Z,100207.14
2019-02-15T08:17:51.588Z,100202.86
2019-02-15T08:20:19.465Z,100204.35
2019-02-15T08:22:48.237Z,100206.56
2019-02-15T08:25:16.852Z,100192.92
2019-02-15T08:27:45.930Z,100192.92
2019-02-15T08:30:14.860Z,100199.02
2019-02-15T08:32:42.778Z,100198.64
2019-02-15T08:35:10.997Z,100197.09
2019-02-15T08:37:39.742Z,100196.19
2019-02-15T08:40:08.725Z,100197.48
2019-02-15T08:42:37.446Z,100195.39
2019-02-15T08:45:07.890Z,100189.91
2019-02-15T08:47:36.501Z,100168.30
2019-02-15T08:50:04.971Z,100168.30
2019-02-15T08:52:33.729Z,100188.66
2019-02-15T08:55:01.944Z,100188.66
2019-02-15T08:57:31.133Z,100186.98
2019-02-15T08:59:59.600Z,100185.84
2019-02-15T09:02:27.885Z,100187.38
2019-02-15T09:04:57.053Z,100180.42
2019-02-15T09:07:25.062Z,100185.93
2019-02-15T09:09:54.102Z,100185.06
2019-02-15T09:12:22.232Z,100185.65
2019-02-15T09:14:50.476Z,100185.29
2019-02-15T09:17:18.775Z,100185.66
2019-02-15T09:19:47.091Z,100182.83
2019-02-15T09:22:15.135Z,100184.11
2019-02-15T09:24:43.391Z,100183.11
2019-02-15T09:27:23.722Z,100177.38
2019-02-15T09:29:53.430Z,100172.91
2019-02-15T09:32:23.274Z,100174.86
2019-02-15T09:34:51.539Z,100172.91
2019-02-15T09:37:19.552Z,100170.74
2019-02-15T09:42:28.651Z,100167.06
2019-02-15T09:44:56.202Z,100161.72
2019-02-15T09:47:23.970Z,100163.17
2019-02-15T09:49:51.841Z,100165.84
2019-02-15T09:52:19.423Z,100157.05
2019-02-15T09:54:47.453Z,100157.05
2019-02-15T09:57:14.745Z,100156.91
2019-02-15T09:59:42.602Z,100164.54
2019-02-15T10:02:10.544Z,100158.95
2019-02-15T10:04:38.951Z,100162.69
2019-02-15T10:07:07.073Z,100160.01
2019-02-15T10:09:35.398Z,100160.64
2019-02-15T10:12:04.642Z,100164.50
2019-02-15T10:14:33.475Z,100163.59
2019-02-15T10:17:02.107Z,100157.14
2019-02-15T10:19:30.513Z,100153.60
2019-02-15T10:22:00.263Z,100164.41
2019-02-15T10:24:29.072Z,100164.46
2019-02-15T10:26:57.444Z,100156.66
2019-02-15T10:29:25.288Z,100161.65
2019-02-15T10:31:53.910Z,100157.05
2019-02-15T10:34:21.730Z,100151.23
2019-02-15T10:36:50.357Z,100151.70
2019-02-15T10:39:18.383Z,100150.75
2019-02-15T10:41:47.497Z,100154.48
2019-02-15T10:44:15.688Z,100150.80
2019-02-15T10:46:44.663Z,100147.41
2019-02-15T10:49:13.136Z,100140.12
2019-02-15T10:51:43.064Z,100135.94
2019-02-15T10:54:10.806Z,100135.77
2019-02-15T10:56:38.871Z,100133.67
2019-02-15T10:59:07.149Z,100126.48
2019-02-15T11:01:36.742Z,100120.61
2019-02-15T11:04:05.709Z,100118.52
2019-02-15T11:06:33.646Z,100124.59
2019-02-15T11:09:02.303Z,100117.03
2019-02-15T11:11:31.082Z,100117.73
2019-02-15T11:14:00.242Z,100110.47
2019-02-15T11:16:28.556Z,100109.31
2019-02-15T11:18:57.242Z,100104.44
2019-02-15T11:21:25.511Z,100099.28
2019-02-15T11:23:54.224Z,100092.88
2019-02-15T11:26:24.974Z,100086.20
2019-02-15T11:28:53.424Z,100082.42
2019-02-15T11:31:22.205Z,100078.66
2019-02-15T11:33:50.589Z,100082.83
2019-02-15T11:36:20.229Z,100076.44
2019-02-15T11:38:48.477Z,100076.16
2019-02-15T11:41:16.541Z,100067.45
2019-02-15T11:43:45.690Z,100056.11
2019-02-15T11:46:14.547Z,100060.77
2019-02-15T11:48:43.305Z,100058.30
2019-02-15T11:51:13.176Z,100054.06
2019-02-15T11:53:41.289Z,100054.97
2019-02-15T11:56:09.491Z,100048.61
2019-02-15T11:58:38.403Z,100041.47
2019-02-15T12:01:06.585Z,100038.12
2019-02-15T12:03:35.058Z,100036.78
2019-02-15T12:06:03.906Z,100036.78
2019-02-15T12:08:31.925Z,100027.39
2019-02-15T12:10:59.998Z,100026.41
2019-02-15T12:13:28.570Z,100022.98
2019-02-15T12:15:57.390Z,100012.31
2019-02-15T12:18:25.091Z,100012.73
2019-02-15T12:20:53.698Z,100018.59
2019-02-15T12:23:21.944Z,100005.91
2019-02-15T12:25:49.886Z,99983.88
2019-02-15T12:28:18.124Z,99983.72
2019-02-15T12:30:47.970Z,99983.72
2019-02-15T12:33:17.041Z,99999.73
2019-02-15T12:35:45.289Z,99988.63
2019-02-15T12:38:12.770Z,99988.63
2019-02-15T12:40:40.852Z,99986.67
2019-02-15T12:43:09.061Z,99981.75
2019-02-15T12:45:37.576Z,99968.05
2019-02-15T12:48:05.796Z,99966.47
2019-02-15T12:50:34.231Z,99960.38
2019-02-15T12:53:02.173Z,99960.56
2019-02-15T12:55:30.998Z,99955.30
2019-02-15T12:57:59.620Z,99953.66
2019-02-15T13:00:28.467Z,99930.52
2019-02-15T13:02:56.628Z,99945.00
2019-02-15T13:05:24.782Z,99938.08
2019-02-15T13:07:52.802Z,99941.64
2019-02-15T13:10:23.162Z,99934.52
2019-02-15T13:12:51.127Z,99933.31
2019-02-15T13:15:18.937Z,99935.61
2019-02-15T13:17:49.095Z,99927.93
2019-02-15T13:20:17.751Z,99929.57
2019-02-15T13:22:47.383Z,99919.04
2019-02-15T13:25:15.614Z,99912.84
2019-02-15T13:27:45.108Z,99910.80
2019-02-15T13:30:13.061Z,99908.80
2019-02-15T13:32:41.836Z,99906.70
2019-02-15T13:35:11.747Z,99900.02
2019-02-15T13:37:39.814Z,99900.02
2019-02-15T13:40:08.497Z,99899.71
2019-02-15T13:42:36.630Z,99902.48
2019-02-15T13:45:05.392Z,99896.91
2019-02-15T13:47:35.210Z,99896.15
2019-02-15T13:50:04.289Z,99890.36
2019-02-15T13:52:32.281Z,99890.36
2019-02-15T13:55:00.539Z,99890.23
2019-02-15T13:57:28.838Z,99870.70
2019-02-15T13:59:57.208Z,99870.70
2019-02-15T14:02:25.218Z,99885.23
2019-02-15T14:04:55.404Z,99885.23
2019-02-15T14:07:23.437Z,99888.80
2019-02-15T14:09:52.311Z,99885.86
2019-02-15T14:12:20.297Z,99885.86
2019-02-15T14:14:49.931Z,99886.92
2019-02-15T14:17:18.241Z,99886.13
2019-02-15T14:19:47.425Z,99880.86
2019-02-15T14:22:15.731Z,99878.80
2019-02-15T14:24:43.744Z,99881.74
2019-02-15T14:27:11.883Z,99881.85
2019-02-15T14:29:39.740Z,99869.58
2019-02-15T14:32:09.028Z,99869.58
2019-02-15T14:34:38.013Z,99871.80
2019-02-15T14:37:06.019Z,99870.44
2019-02-15T14:39:34.925Z,99865.41
2019-02-15T14:42:02.633Z,99870.21
2019-02-15T14:44:31.428Z,99869.20
2019-02-15T14:46:59.440Z,99867.12
2019-02-15T14:49:28.833Z,99872.50
2019-02-15T14:51:56.766Z,99869.30
2019-02-15T14:54:24.903Z,99877.27
2019-02-15T14:56:53.409Z,99870.80
2019-02-15T14:59:21.793Z,99865.17
2019-02-15T15:01:50.386Z,99864.06
2019-02-15T15:04:19.186Z,99859.25
2019-02-15T15:06:47.152Z,99859.25
2019-02-15T15:09:15.682Z,99856.03
2019-02-15T15:11:43.635Z,99860.09
2019-02-15T15:14:11.869Z,99854.88
2019-02-15T15:16:39.986Z,99851.36
2019-02-15T15:19:11.057Z,99848.09
2019-02-15T15:21:39.153Z,99826.01
2019-02-15T15:24:09.043Z,99826.01
2019-02-15T15:26:37.492Z,99843.28
2019-02-15T15:29:05.649Z,99843.77
2019-02-15T15:31:34.144Z,99844.54
2019-02-15T15:34:04.617Z,99843.50
2019-02-15T15:36:33.307Z,99840.83
2019-02-15T15:39:02.451Z,99831.34
2019-02-15T15:41:30.997Z,99832.97
2019-02-15T15:44:03.608Z,99824.65
2019-02-15T15:46:32.328Z,99832.95
2019-02-15T15:49:00.341Z,99826.84
2019-02-15T15:51:28.146Z,99820.42
2019-02-15T15:53:56.772Z,99822.85
2019-02-15T15:56:24.848Z,99819.36
2019-02-15T15:58:53.267Z,99817.45
2019-02-15T16:01:23.073Z,99819.61
2019-02-15T16:03:51.257Z,99819.83
2019-02-15T16:06:24.474Z,99821.13
2019-02-15T16:08:49.546Z,99817.61
2019-02-15T16:11:17.767Z,99810.23
2019-02-15T16:13:46.754Z,99809.48
2019-02-15T16:16:15.486Z,99810.50
2019-02-15T16:18:44.839Z,99813.13
2019-02-15T16:22:02.583Z,99814.73
2019-02-15T16:24:28.885Z,99814.09
2019-02-15T16:26:56.448Z,99811.84
2019-02-15T16:29:26.006Z,99812.37
2019-02-15T16:31:53.967Z,99810.36
2019-02-15T16:34:22.188Z,99811.15
2019-02-15T16:36:49.962Z,99812.73
2019-02-15T16:39:18.171Z,99815.58
2019-02-15T16:41:47.146Z,99813.64
2019-02-15T16:44:16.985Z,99814.43
2019-02-15T16:46:45.893Z,99813.59
2019-02-15T16:49:14.186Z,99812.47
2019-02-15T16:51:42.082Z,99819.70
2019-02-15T16:54:11.861Z,99820.67
2019-02-15T16:56:39.590Z,99817.41
2019-02-15T16:59:07.347Z,99821.91
2019-02-15T17:01:35.335Z,99823.39
2019-02-15T17:04:03.009Z,99820.17
2019-02-15T17:06:30.850Z,99822.76
2019-02-15T17:08:58.522Z,99817.90
2019-02-15T17:11:26.946Z,99819.66
2019-02-15T17:13:54.900Z,99822.84
2019-02-15T17:16:23.075Z,99824.70
2019-02-15T17:18:52.246Z,99828.44
2019-02-15T17:21:20.985Z,99826.34
2019-02-15T17:23:49.248Z,99836.97
2019-02-15T17:26:17.550Z,99836.42
2019-02-15T17:28:45.995Z,99836.42
2019-02-15T17:31:14.066Z,99838.82
2019-02-15T17:33:41.797Z,99846.63
2019-02-15T17:36:09.783Z,99841.88
2019-02-15T17:38:37.980Z,99843.25
2019-02-15T17:41:06.046Z,99845.86
2019-02-15T17:43:34.015Z,99847.95
2019-02-15T17:46:02.472Z,99849.83
2019-02-15T17:48:30.536Z,99849.22
2019-02-15T17:50:58.551Z,99854.25
2019-02-15T17:53:26.135Z,99842.23
2019-02-15T17:55:54.906Z,99838.98
2019-02-15T17:58:23.345Z,99842.65
2019-02-15T18:00:51.825Z,99838.64
2019-02-15T18:03:19.472Z,99840.83
2019-02-15T18:05:47.159Z,99832.23
2019-02-15T18:08:15.415Z,99829.02
2019-02-15T18:10:42.955Z,99827.95
2019-02-15T18:13:10.501Z,99818.78
2019-02-15T18:15:38.884Z,99825.77
2019-02-15T18:18:06.544Z,99821.48
2019-02-15T18:20:34.375Z,99823.02
2019-02-15T18:23:02.759Z,99826.63
2019-02-15T18:25:30.407Z,99824.70
2019-02-15T18:27:59.641Z,99823.41
2019-02-15T18:30:28.976Z,99828.71
2019-02-15T18:32:56.898Z,99831.11
2019-02-15T18:35:24.912Z,99831.86
2019-02-15T18:37:54.053Z,99829.36
2019-02-15T18:40:22.060Z,99829.63
2019-02-15T18:42:50.650Z,99832.06
2019-02-15T18:45:18.364Z,99836.27
2019-02-15T18:47:46.067Z,99828.53
2019-02-15T18:50:14.258Z,99829.63
2019-02-15T18:52:41.933Z,99824.77
2019-02-15T18:55:11.654Z,99825.86
2019-02-15T18:57:39.410Z,99829.88
2019-02-15T19:00:10.574Z,99828.77
2019-02-15T19:02:40.259Z,99821.68
2019-02-15T19:05:10.036Z,99817.91
2019-02-15T19:07:37.852Z,99813.59
2019-02-15T19:10:07.731Z,99814.73
2019-02-15T19:12:35.882Z,99813.29
2019-02-15T19:15:04.121Z,99812.16
2019-02-15T19:17:32.847Z,99814.24
2019-02-15T19:20:00.542Z,99811.09
2019-02-15T19:22:28.666Z,99810.34
2019-02-15T19:24:56.946Z,99810.86
2019-02-15T19:27:25.047Z,99812.98
2019-02-15T19:29:53.616Z,99810.78
2019-02-15T19:32:25.046Z,99809.21
2019-02-15T19:34:54.435Z,99815.53
2019-02-15T19:37:22.394Z,99819.22
2019-02-15T19:39:56.464Z,99813.97
2019-02-15T19:42:24.417Z,99814.16
2019-02-15T19:44:52.919Z,99814.64
2019-02-15T19:47:20.804Z,99807.11
2019-02-15T19:49:49.630Z,99812.95
2019-02-15T19:52:18.827Z,99807.89
2019-02-15T19:54:47.079Z,99811.59
2019-02-15T19:57:15.555Z,99810.25
2019-02-15T19:59:53.191Z,99808.88
2019-02-15T20:02:13.493Z,99808.64
2019-02-15T20:04:41.401Z,99808.91
2019-02-15T20:07:10.001Z,99804.63
2019-02-15T20:09:38.021Z,99806.45
2019-02-15T20:12:05.442Z,99805.34
2019-02-15T20:14:33.701Z,99811.59
2019-02-15T20:17:01.751Z,99813.20
2019-02-15T20:19:29.829Z,99805.55
2019-02-15T20:21:58.302Z,99805.16
2019-02-15T20:24:28.039Z,99808.64
2019-02-15T20:26:56.365Z,99800.72
2019-02-15T20:29:24.120Z,99801.58
2019-02-15T20:31:52.211Z,99795.69
2019-02-15T20:34:19.912Z,99791.97
2019-02-15T20:36:47.550Z,99804.64
2019-02-15T20:39:16.033Z,99799.30
2019-02-15T20:41:43.440Z,99780.09
2019-02-15T20:44:10.916Z,99794.20
2019-02-15T20:46:38.783Z,99796.73
2019-02-15T20:49:06.871Z,99797.83
2019-02-15T20:51:34.457Z,99797.97
2019-02-15T20:54:02.230Z,99797.62
2019-02-15T20:56:30.169Z,99798.83
2019-02-15T20:58:59.691Z,99800.68
2019-02-15T21:01:27.750Z,99800.91
2019-02-15T21:03:56.104Z,99798.59
2019-02-15T21:06:24.126Z,99799.55
2019-02-15T21:08:52.266Z,99783.90
2019-02-15T21:11:20.607Z,99792.28
2019-02-15T21:13:48.596Z,99788.70
2019-02-15T21:16:16.807Z,99785.84
2019-02-15T21:18:44.384Z,99786.59
2019-02-15T21:21:12.104Z,99779.01
2019-02-15T21:23:40.072Z,99781.30
2019-02-15T21:26:08.369Z,99781.57
2019-02-15T21:28:36.009Z,99775.33
2019-02-15T21:31:04.359Z,99771.33
2019-02-15T21:33:32.118Z,99772.04
2019-02-15T21:36:00.518Z,99774.98
2019-02-15T21:38:28.181Z,99771.22
2019-02-15T21:40:56.009Z,99774.75
2019-02-15T21:43:23.553Z,99771.84
2019-02-15T21:45:52.421Z,99775.61
2019-02-15T21:48:21.789Z,99769.72
2019-02-15T21:50:49.598Z,99766.98
2019-02-15T21:53:18.907Z,99768.08
2019-02-15T21:55:47.050Z,99766.98
2019-02-15T21:58:15.553Z,99774.44
2019-02-15T22:00:43.724Z,99770.27
2019-02-15T22:03:11.780Z,99770.43
2019-02-15T22:05:39.617Z,99768.33
2019-02-15T22:08:08.430Z,99768.50
2019-02-15T22:10:37.947Z,99766.69
2019-02-15T22:13:06.547Z,99771.84
2019-02-15T22:15:34.918Z,99764.08
2019-02-15T22:18:04.013Z,99767.09
2019-02-15T22:20:31.566Z,99761.75
2019-02-15T22:23:00.755Z,99760.42
2019-02-15T22:25:29.995Z,99768.70
2019-02-15T22:27:59.140Z,99765.76
2019-02-15T22:30:26.950Z,99767.77
2019-02-15T22:32:54.696Z,99768.20
2019-02-15T22:35:23.591Z,99758.87
2019-02-15T22:37:52.334Z,99758.42
2019-02-15T22:40:37.946Z,99758.59
2019-02-15T22:43:16.267Z,99752.78
2019-02-15T22:45:44.787Z,99752.78
2019-02-15T22:48:14.064Z,99750.46
2019-02-15T22:50:42.006Z,99752.95
2019-02-15T22:53:09.588Z,99751.34
2019-02-15T22:55:38.026Z,99756.91
2019-02-15T22:58:06.133Z,99753.06
2019-02-15T23:01:01.878Z,99756.56
2019-02-15T23:03:31.396Z,99755.81
2019-02-15T23:05:59.431Z,99752.99
2019-02-15T23:08:27.661Z,99749.19
2019-02-15T23:10:55.326Z,99752.28
2019-02-15T23:13:23.503Z,99751.34
2019-02-15T23:15:51.995Z,99757.70
2019-02-15T23:18:20.368Z,99744.24
2019-02-15T23:20:49.159Z,99750.56
2019-02-15T23:23:19.054Z,99748.67
2019-02-15T23:25:46.972Z,99749.70
2019-02-15T23:28:14.688Z,99745.23
2019-02-15T23:30:42.862Z,99745.89
2019-02-15T23:33:12.554Z,99745.34
2019-02-15T23:35:40.887Z,99748.47
2019-02-15T23:38:09.556Z,99743.89
2019-02-15T23:40:37.918Z,99742.95
2019-02-15T23:43:06.938Z,99750.36
2019-02-15T23:45:36.429Z,99753.03
2019-02-15T23:48:04.523Z,99752.71
2019-02-15T23:50:32.449Z,99756.95
2019-02-15T23:53:00.244Z,99747.38
2019-02-15T23:55:28.978Z,99748.56
2019-02-15T23:57:57.595Z,99752.48
